Time;durP1;ratioP1;P1;durP2;ratioP2;P2;SDS_P1;SDS_P2;PMS_P1;PMS_P2;Temp;Humidity;BMP_temperature;BMP_pressure;BME280_temperature;BME280_humidity;BME280_pressure;Samples;Min_cycle;Max_cycle;Signal;HPM_P1;HPM_P2
2023/05/04 00:00:55;;;;;;;9.05;7.38;;;;;;;;;;4974931;28;20191;-55
2023/05/04 00:03:20;;;;;;;9.43;7.05;;;;;;;;;;4975616;28;20039;-61
2023/05/04 00:05:46;;;;;;;10.63;7.00;;;;;;;;;;4975114;28;20046;-55
2023/05/04 00:08:11;;;;;;;7.25;6.55;;;;;;;;;;4975382;28;20030;-55
2023/05/04 00:10:36;;;;;;;11.32;6.75;;;;;;;;;;4975110;28;20122;-55
2023/05/04 00:13:02;;;;;;;9.88;6.78;;;;;;;;;;4975296;28;20031;-55
2023/05/04 00:15:29;;;;;;;10.55;7.10;;;;;;;;;;4975106;28;20059;-55
2023/05/04 00:17:54;;;;;;;9.82;6.72;;;;;;;;;;4974990;28;20034;-55
2023/05/04 00:20:20;;;;;;;7.32;6.50;;;;;;;;;;4974738;28;20484;-55
2023/05/04 00:22:45;;;;;;;7.47;5.78;;;;;;;;;;4974806;28;20053;-55
2023/05/04 00:25:11;;;;;;;7.88;6.30;;;;;;;;;;4975191;28;20030;-55
2023/05/04 00:27:36;;;;;;;9.77;6.57;;;;;;;;;;4974751;28;20031;-55
2023/05/04 00:30:02;;;;;;;8.73;5.95;;;;;;;;;;4974786;28;20058;-55
2023/05/04 00:32:27;;;;;;;8.77;6.32;;;;;;;;;;4974505;28;20498;-55
2023/05/04 00:34:52;;;;;;;6.50;5.75;;;;;;;;;;4974947;28;20023;-55
2023/05/04 00:37:19;;;;;;;7.90;5.68;;;;;;;;;;4973372;28;20023;-61
2023/05/04 00:39:45;;;;;;;5.95;5.35;;;;;;;;;;4975190;28;20366;-62
2023/05/04 00:42:10;;;;;;;5.30;4.85;;;;;;;;;;4978525;28;20046;-61
2023/05/04 00:44:35;;;;;;;6.32;4.53;;;;;;;;;;4978705;28;20039;-61
2023/05/04 00:47:02;;;;;;;5.00;4.50;;;;;;;;;;4978489;28;20038;-61
2023/05/04 00:49:27;;;;;;;7.03;4.85;;;;;;;;;;4960988;28;20035;-60
2023/05/04 00:51:54;;;;;;;7.00;4.43;;;;;;;;;;4978552;28;20039;-55
2023/05/04 00:54:20;;;;;;;6.93;4.85;;;;;;;;;;4977153;28;20046;-55
2023/05/04 00:56:45;;;;;;;6.38;4.97;;;;;;;;;;4978490;28;20121;-55
2023/05/04 00:59:12;;;;;;;5.13;4.72;;;;;;;;;;4978171;28;20061;-55
2023/05/04 01:01:38;;;;;;;6.03;4.65;;;;;;;;;;4978307;28;20448;-55
2023/05/04 01:04:04;;;;;;;6.22;4.60;;;;;;;;;;4977018;28;20070;-55
2023/05/04 01:06:34;;;;;;;6.15;4.70;;;;;;;;;;4977758;28;20035;-55
2023/05/04 01:08:59;;;;;;;5.10;4.22;;;;;;;;;;4977152;28;20030;-55
2023/05/04 01:11:38;;;;;;;5.97;4.43;;;;;;;;;;4977942;28;20034;-55
2023/05/04 01:14:04;;;;;;;5.32;4.82;;;;;;;;;;4977868;28;20507;-55
2023/05/04 01:16:29;;;;;;;5.13;4.55;;;;;;;;;;4976922;28;20018;-55
2023/05/04 01:18:54;;;;;;;6.05;4.30;;;;;;;;;;4977903;28;20027;-55
2023/05/04 01:21:20;;;;;;;5.93;4.70;;;;;;;;;;4977585;28;20034;-61
2023/05/04 01:23:45;;;;;;;5.43;4.55;;;;;;;;;;4976225;28;20501;-55
2023/05/04 01:26:27;;;;;;;5.53;4.60;;;;;;;;;;4977891;28;20580;-61
2023/05/04 01:28:56;;;;;;;7.63;5.10;;;;;;;;;;4977150;28;20446;-55
2023/05/04 01:31:28;;;;;;;7.45;4.63;;;;;;;;;;4977525;28;20074;-61
2023/05/04 01:33:54;;;;;;;4.95;4.32;;;;;;;;;;4959566;28;20389;-56
2023/05/04 01:36:21;;;;;;;6.35;4.43;;;;;;;;;;4992597;28;20030;-61
2023/05/04 01:38:47;;;;;;;6.50;4.07;;;;;;;;;;4977519;28;20023;-55
2023/05/04 01:41:12;;;;;;;8.32;4.82;;;;;;;;;;4960095;28;20121;-55
2023/05/04 01:43:37;;;;;;;11.05;5.50;;;;;;;;;;4976125;28;20166;-55
2023/05/04 01:46:03;;;;;;;7.35;5.32;;;;;;;;;;4977240;28;20035;-55
2023/05/04 01:48:28;;;;;;;7.63;4.85;;;;;;;;;;4976316;28;20053;-55
2023/05/04 01:50:54;;;;;;;6.57;4.88;;;;;;;;;;4977348;28;20476;-55
2023/05/04 01:53:20;;;;;;;6.47;4.57;;;;;;;;;;4975963;28;20022;-62
2023/05/04 01:55:45;;;;;;;7.57;4.47;;;;;;;;;;4976698;28;20047;-61
2023/05/04 01:58:11;;;;;;;6.00;4.45;;;;;;;;;;4976800;28;20025;-61
2023/05/04 02:00:36;;;;;;;7.72;4.93;;;;;;;;;;4957388;28;20480;-62
2023/05/04 02:03:01;;;;;;;6.68;4.68;;;;;;;;;;4955583;29;20090;-62
2023/05/04 02:05:27;;;;;;;9.50;5.50;;;;;;;;;;4957554;29;20023;-61
2023/05/04 02:07:52;;;;;;;12.38;6.05;;;;;;;;;;4958081;29;20019;-61
2023/05/04 02:10:18;;;;;;;6.00;4.30;;;;;;;;;;4958007;29;20035;-60
2023/05/04 02:12:43;;;;;;;4.38;3.50;;;;;;;;;;4955909;29;20512;-61
2023/05/04 02:15:09;;;;;;;5.20;3.47;;;;;;;;;;4956300;29;20026;-61
2023/05/04 02:17:34;;;;;;;6.72;3.58;;;;;;;;;;4957651;29;20110;-61
2023/05/04 02:19:59;;;;;;;3.85;3.47;;;;;;;;;;4957831;29;20474;-60
2023/05/04 02:22:24;;;;;;;5.20;3.65;;;;;;;;;;4956559;29;20046;-61
2023/05/04 02:24:51;;;;;;;4.80;3.65;;;;;;;;;;4955545;28;20040;-61
2023/05/04 02:27:17;;;;;;;4.13;3.65;;;;;;;;;;4956835;29;20037;-61
2023/05/04 02:29:43;;;;;;;4.38;3.60;;;;;;;;;;4955815;29;20031;-61
2023/05/04 02:32:09;;;;;;;4.15;3.47;;;;;;;;;;4957200;29;20031;-61
2023/05/04 02:34:34;;;;;;;4.03;3.53;;;;;;;;;;4957276;29;20102;-61
2023/05/04 02:36:59;;;;;;;5.05;3.42;;;;;;;;;;4955294;29;20035;-61
2023/05/04 02:39:25;;;;;;;5.43;3.40;;;;;;;;;;4957083;29;20039;-61
2023/05/04 02:41:50;;;;;;;4.10;3.22;;;;;;;;;;4955518;29;20035;-60
2023/05/04 02:44:18;;;;;;;4.35;3.55;;;;;;;;;;4955630;29;20035;-60
2023/05/04 02:46:44;;;;;;;5.70;3.60;;;;;;;;;;4955910;29;20525;-61
2023/05/04 02:49:10;;;;;;;5.80;3.70;;;;;;;;;;4957062;29;20101;-61
2023/05/04 02:51:35;;;;;;;4.15;3.55;;;;;;;;;;4956628;29;20027;-61
2023/05/04 02:54:01;;;;;;;4.93;3.80;;;;;;;;;;4957018;29;20346;-61
2023/05/04 02:56:26;;;;;;;4.15;3.55;;;;;;;;;;4955760;29;20031;-61
2023/05/04 02:58:51;;;;;;;5.13;3.65;;;;;;;;;;4956730;29;20027;-61
2023/05/04 03:01:17;;;;;;;7.93;3.70;;;;;;;;;;4955507;29;20048;-61
2023/05/04 03:03:42;;;;;;;8.35;3.97;;;;;;;;;;4956403;28;20023;-61
2023/05/04 03:06:09;;;;;;;5.22;3.92;;;;;;;;;;4955552;29;20039;-62
2023/05/04 03:08:35;;;;;;;5.75;4.30;;;;;;;;;;4938336;29;20031;-61
2023/05/04 03:11:01;;;;;;;6.15;3.83;;;;;;;;;;4955021;29;20485;-61
2023/05/04 03:13:26;;;;;;;6.13;3.83;;;;;;;;;;4956562;29;20035;-62
2023/05/04 03:15:52;;;;;;;4.72;3.58;;;;;;;;;;4955424;29;20033;-61
2023/05/04 03:18:17;;;;;;;4.60;4.00;;;;;;;;;;4956386;29;20023;-61
2023/05/04 03:20:43;;;;;;;3.72;3.38;;;;;;;;;;4956208;29;20019;-61
2023/05/04 03:23:14;;;;;;;6.15;4.60;;;;;;;;;;4954142;29;20126;-61
2023/05/04 03:25:40;;;;;;;8.23;4.85;;;;;;;;;;4955732;29;20551;-62
2023/05/04 03:28:10;;;;;;;6.38;4.93;;;;;;;;;;4954944;29;20035;-54
2023/05/04 03:30:36;;;;;;;7.97;5.53;;;;;;;;;;4956167;29;20378;-54
2023/05/04 03:33:02;;;;;;;13.27;7.47;;;;;;;;;;4955539;29;20110;-61
2023/05/04 03:35:29;;;;;;;17.23;9.10;;;;;;;;;;4954728;29;20146;-61
2023/05/04 03:37:55;;;;;;;14.63;8.82;;;;;;;;;;4954184;29;20024;-62
2023/05/04 03:40:21;;;;;;;11.88;7.20;;;;;;;;;;4956495;29;20027;-61
2023/05/04 03:42:50;;;;;;;9.80;6.35;;;;;;;;;;4954190;29;20035;-61
2023/05/04 03:45:15;;;;;;;15.07;8.35;;;;;;;;;;4955033;29;20033;-61
2023/05/04 03:47:40;;;;;;;15.15;8.35;;;;;;;;;;4954511;29;20441;-61
2023/05/04 03:50:06;;;;;;;16.83;8.68;;;;;;;;;;4954867;29;20034;-61
2023/05/04 03:52:32;;;;;;;20.08;8.65;;;;;;;;;;4954451;29;20048;-56
2023/05/04 03:54:57;;;;;;;20.02;8.45;;;;;;;;;;4954634;29;20031;-54
2023/05/04 03:57:23;;;;;;;16.98;7.65;;;;;;;;;;4956065;29;20344;-54
2023/05/04 03:59:49;;;;;;;14.15;7.35;;;;;;;;;;4954715;29;20027;-54
2023/05/04 04:02:15;;;;;;;12.50;7.13;;;;;;;;;;4938304;29;20030;-55
2023/05/04 04:04:41;;;;;;;14.27;7.22;;;;;;;;;;4954251;29;20513;-55
2023/05/04 04:07:08;;;;;;;14.10;6.63;;;;;;;;;;4954577;29;20031;-55
2023/05/04 04:09:34;;;;;;;11.95;6.55;;;;;;;;;;4954715;29;20039;-55
2023/05/04 04:11:59;;;;;;;12.07;6.80;;;;;;;;;;4955689;29;20126;-55
2023/05/04 04:14:25;;;;;;;13.63;6.80;;;;;;;;;;4955829;28;20030;-55
2023/05/04 04:16:50;;;;;;;14.90;6.50;;;;;;;;;;4959968;29;20027;-55
2023/05/04 04:19:16;;;;;;;10.93;6.18;;;;;;;;;;4958235;29;20450;-55
2023/05/04 04:21:41;;;;;;;10.32;5.40;;;;;;;;;;4959401;29;20039;-55
2023/05/04 04:24:07;;;;;;;10.20;6.05;;;;;;;;;;4959408;29;20055;-55
2023/05/04 04:26:32;;;;;;;9.48;6.05;;;;;;;;;;4958380;29;20041;-55
2023/05/04 04:28:58;;;;;;;8.23;5.53;;;;;;;;;;4958427;28;20045;-54
2023/05/04 04:31:23;;;;;;;8.50;5.47;;;;;;;;;;4959383;29;20031;-54
2023/05/04 04:33:49;;;;;;;7.63;5.30;;;;;;;;;;4959344;29;20487;-55
2023/05/04 04:36:15;;;;;;;9.55;5.47;;;;;;;;;;4959200;29;20031;-55
2023/05/04 04:38:44;;;;;;;10.55;5.03;;;;;;;;;;4959380;29;20023;-54
2023/05/04 04:41:09;;;;;;;8.45;5.05;;;;;;;;;;4959091;29;20038;-55
2023/05/04 04:43:34;;;;;;;9.50;4.90;;;;;;;;;;4958829;29;20382;-55
2023/05/04 04:46:00;;;;;;;5.60;4.07;;;;;;;;;;4959549;29;20042;-55
2023/05/04 04:48:26;;;;;;;6.30;4.03;;;;;;;;;;4957691;29;20031;-55
2023/05/04 04:50:52;;;;;;;3.63;3.28;;;;;;;;;;4959307;29;20023;-55
2023/05/04 04:53:17;;;;;;;3.70;3.30;;;;;;;;;;4959198;29;20119;-60
2023/05/04 04:55:43;;;;;;;3.53;2.92;;;;;;;;;;4959262;29;20059;-55
2023/05/04 04:58:08;;;;;;;4.22;3.00;;;;;;;;;;4959244;29;20086;-55
2023/05/04 05:00:34;;;;;;;3.58;3.17;;;;;;;;;;4958857;29;20034;-55
2023/05/04 05:03:00;;;;;;;3.63;3.33;;;;;;;;;;4958497;29;20033;-55
2023/05/04 05:05:25;;;;;;;3.47;2.83;;;;;;;;;;4958860;29;20035;-54
2023/05/04 05:07:51;;;;;;;4.35;3.08;;;;;;;;;;4958678;29;20115;-55
2023/05/04 05:10:16;;;;;;;5.63;3.03;;;;;;;;;;4958832;29;20027;-55
2023/05/04 05:12:42;;;;;;;3.70;3.15;;;;;;;;;;4958649;29;20118;-55
2023/05/04 05:15:08;;;;;;;4.28;2.88;;;;;;;;;;4961419;28;20027;-62
2023/05/04 05:17:34;;;;;;;6.20;2.90;;;;;;;;;;4948158;28;20364;-62
2023/05/04 05:19:59;;;;;;;3.33;2.72;;;;;;;;;;4939134;29;20034;-62
2023/05/04 05:22:25;;;;;;;3.65;3.03;;;;;;;;;;4939283;29;20110;-61
2023/05/04 05:24:50;;;;;;;3.00;2.72;;;;;;;;;;4939178;29;20063;-61
2023/05/04 05:27:15;;;;;;;3.58;2.83;;;;;;;;;;4937767;29;20040;-61
2023/05/04 05:29:41;;;;;;;5.03;3.47;;;;;;;;;;4939173;29;20027;-62
2023/05/04 05:32:06;;;;;;;5.18;4.05;;;;;;;;;;4938778;29;20075;-62
2023/05/04 05:34:32;;;;;;;5.07;4.22;;;;;;;;;;4939247;29;20035;-56
2023/05/04 05:36:57;;;;;;;7.10;4.57;;;;;;;;;;4939101;29;20042;-54
2023/05/04 05:39:23;;;;;;;6.53;4.55;;;;;;;;;;4938629;29;20032;-62
2023/05/04 05:41:48;;;;;;;4.22;3.60;;;;;;;;;;4939004;29;20047;-55
2023/05/04 05:44:13;;;;;;;3.65;2.75;;;;;;;;;;4938809;29;20036;-55
2023/05/04 05:46:39;;;;;;;3.35;2.75;;;;;;;;;;4938670;29;20123;-61
2023/05/04 05:49:06;;;;;;;3.95;2.70;;;;;;;;;;4922184;29;20094;-62
2023/05/04 05:51:31;;;;;;;2.63;2.42;;;;;;;;;;4938429;29;20032;-61
2023/05/04 05:53:57;;;;;;;2.83;2.60;;;;;;;;;;4938600;29;20031;-60
2023/05/04 05:56:22;;;;;;;5.95;3.30;;;;;;;;;;4938985;29;20083;-60
2023/05/04 05:58:49;;;;;;;4.10;2.67;;;;;;;;;;4938663;29;20119;-60
2023/05/04 06:01:15;;;;;;;2.65;2.40;;;;;;;;;;4938416;29;20032;-60
2023/05/04 06:03:40;;;;;;;3.85;2.70;;;;;;;;;;4937821;29;20386;-60
2023/05/04 06:06:06;;;;;;;3.72;3.05;;;;;;;;;;4938571;29;20039;-60
2023/05/04 06:08:31;;;;;;;2.60;2.38;;;;;;;;;;4938003;29;20028;-60
2023/05/04 06:10:57;;;;;;;2.60;2.40;;;;;;;;;;4937182;29;20078;-60
2023/05/04 06:13:22;;;;;;;3.33;2.22;;;;;;;;;;4938281;29;20055;-60
2023/05/04 06:15:54;;;;;;;4.07;2.42;;;;;;;;;;4938105;29;20043;-60
2023/05/04 06:18:19;;;;;;;3.80;2.15;;;;;;;;;;4936920;29;20032;-60
2023/05/04 06:20:45;;;;;;;2.85;2.65;;;;;;;;;;4938045;29;20074;-60
2023/05/04 06:23:10;;;;;;;5.07;2.88;;;;;;;;;;4936288;29;20475;-60
2023/05/04 06:25:36;;;;;;;2.55;2.33;;;;;;;;;;4937843;29;20036;-60
2023/05/04 06:28:01;;;;;;;3.28;2.80;;;;;;;;;;4937807;29;20485;-60
2023/05/04 06:30:26;;;;;;;3.92;2.47;;;;;;;;;;4937699;29;20098;-60
2023/05/04 06:32:52;;;;;;;4.45;2.90;;;;;;;;;;4936482;29;20027;-60
2023/05/04 06:35:17;;;;;;;3.08;2.60;;;;;;;;;;4937726;29;20493;-60
2023/05/04 06:37:43;;;;;;;3.03;2.83;;;;;;;;;;4937420;29;20034;-60
2023/05/04 06:40:08;;;;;;;3.20;2.88;;;;;;;;;;4937590;29;20467;-60
2023/05/04 06:42:34;;;;;;;3.45;3.00;;;;;;;;;;4937565;29;20063;-60
2023/05/04 06:44:59;;;;;;;2.88;2.58;;;;;;;;;;4937437;29;20146;-60
2023/05/04 06:47:24;;;;;;;2.90;2.35;;;;;;;;;;4937465;29;20028;-60
2023/05/04 06:49:50;;;;;;;3.90;2.70;;;;;;;;;;4937354;29;20130;-60
2023/05/04 06:52:15;;;;;;;4.22;2.38;;;;;;;;;;4936685;29;20083;-60
2023/05/04 06:54:40;;;;;;;2.70;2.50;;;;;;;;;;4937175;29;20455;-60
2023/05/04 06:57:06;;;;;;;4.20;2.45;;;;;;;;;;4937472;29;20082;-54
2023/05/04 06:59:31;;;;;;;2.30;2.10;;;;;;;;;;4937245;29;20028;-54
2023/05/04 07:01:56;;;;;;;3.45;2.88;;;;;;;;;;4937219;29;20102;-54
2023/05/04 07:04:22;;;;;;;3.80;2.50;;;;;;;;;;4937168;29;20042;-54
2023/05/04 07:06:50;;;;;;;2.53;2.33;;;;;;;;;;4937423;29;20031;-54
2023/05/04 07:09:17;;;;;;;2.70;2.50;;;;;;;;;;4937133;29;20038;-54
2023/05/04 07:11:43;;;;;;;2.15;1.95;;;;;;;;;;4936978;29;20058;-54
2023/05/04 07:14:08;;;;;;;2.08;1.77;;;;;;;;;;4936934;29;20458;-54
2023/05/04 07:16:36;;;;;;;5.40;1.98;;;;;;;;;;4937267;29;20378;-54
2023/05/04 07:19:03;;;;;;;2.13;2.00;;;;;;;;;;4935719;29;20027;-54
2023/05/04 07:21:28;;;;;;;3.60;2.10;;;;;;;;;;4936612;29;20031;-54
2023/05/04 07:23:54;;;;;;;2.90;1.88;;;;;;;;;;4936498;29;20043;-54
2023/05/04 07:26:20;;;;;;;18.60;3.92;;;;;;;;;;4935382;29;20474;-54
2023/05/04 07:28:46;;;;;;;1.90;1.80;;;;;;;;;;4937052;29;20032;-54
2023/05/04 07:31:11;;;;;;;3.72;2.00;;;;;;;;;;4936750;29;20083;-60
2023/05/04 07:33:37;;;;;;;2.22;1.80;;;;;;;;;;4936588;29;20431;-60
2023/05/04 07:36:02;;;;;;;3.42;2.25;;;;;;;;;;4936773;29;20027;-60
2023/05/04 07:38:28;;;;;;;2.40;1.85;;;;;;;;;;4936944;29;20034;-60
2023/05/04 07:40:53;;;;;;;4.38;2.00;;;;;;;;;;4937134;29;20063;-60
2023/05/04 07:43:19;;;;;;;3.53;2.20;;;;;;;;;;4936878;29;20039;-60
2023/05/04 07:45:44;;;;;;;2.55;1.60;;;;;;;;;;4936220;29;20119;-54
2023/05/04 07:48:10;;;;;;;7.60;2.53;;;;;;;;;;4936729;29;20518;-60
2023/05/04 07:50:35;;;;;;;4.68;2.28;;;;;;;;;;4936156;29;20170;-60
2023/05/04 07:53:01;;;;;;;3.58;1.58;;;;;;;;;;4935587;29;20036;-54
2023/05/04 07:55:27;;;;;;;3.53;1.70;;;;;;;;;;4937018;29;20040;-54
2023/05/04 07:57:53;;;;;;;2.13;1.60;;;;;;;;;;4937428;29;20094;-54
2023/05/04 08:00:18;;;;;;;4.47;1.92;;;;;;;;;;4936768;29;20439;-54
2023/05/04 08:02:44;;;;;;;1.98;1.60;;;;;;;;;;4937086;29;20036;-54
2023/05/04 08:05:09;;;;;;;1.58;1.48;;;;;;;;;;4936742;29;20028;-54
2023/05/04 08:07:35;;;;;;;2.42;2.17;;;;;;;;;;4936659;29;20039;-54
2023/05/04 08:10:00;;;;;;;2.55;2.30;;;;;;;;;;4937065;29;20043;-54
2023/05/04 08:12:25;;;;;;;2.17;2.08;;;;;;;;;;4936432;29;20035;-54
2023/05/04 08:14:51;;;;;;;1.98;1.73;;;;;;;;;;4936822;29;20032;-54
2023/05/04 08:17:16;;;;;;;3.90;2.60;;;;;;;;;;4935102;29;20036;-54
2023/05/04 08:19:42;;;;;;;4.07;2.10;;;;;;;;;;4935214;29;20036;-54
2023/05/04 08:22:08;;;;;;;2.30;2.05;;;;;;;;;;4936271;29;20071;-54
2023/05/04 08:24:33;;;;;;;7.75;2.72;;;;;;;;;;4985202;28;20141;-54
2023/05/04 08:27:00;;;;;;;2.83;2.13;;;;;;;;;;4994392;28;20173;-54
2023/05/04 08:29:25;;;;;;;3.03;2.00;;;;;;;;;;4994773;28;20041;-54
2023/05/04 08:31:52;;;;;;;2.75;2.08;;;;;;;;;;4994172;28;20397;-54
2023/05/04 08:34:18;;;;;;;1.92;1.80;;;;;;;;;;4994442;28;20105;-54
2023/05/04 08:36:43;;;;;;;4.35;2.30;;;;;;;;;;4994191;28;20481;-54
2023/05/04 08:39:10;;;;;;;2.83;1.95;;;;;;;;;;4994424;28;20033;-54
2023/05/04 08:41:38;;;;;;;4.28;2.30;;;;;;;;;;4994460;28;20073;-54
2023/05/04 08:44:05;;;;;;;2.95;2.10;;;;;;;;;;4994127;28;20041;-54
2023/05/04 08:46:31;;;;;;;2.50;2.30;;;;;;;;;;4994249;28;20372;-54
2023/05/04 08:48:57;;;;;;;2.22;1.98;;;;;;;;;;4993799;28;20124;-54
2023/05/04 08:51:22;;;;;;;2.15;1.95;;;;;;;;;;4994330;28;20093;-54
2023/05/04 08:53:49;;;;;;;2.05;1.85;;;;;;;;;;4994215;28;20385;-54
2023/05/04 08:56:15;;;;;;;1.83;1.73;;;;;;;;;;4994182;28;20058;-54
2023/05/04 08:58:50;;;;;;;1.85;1.42;;;;;;;;;;4993603;28;20030;-54
2023/05/04 09:01:18;;;;;;;3.70;2.28;;;;;;;;;;4995036;28;20026;-54
2023/05/04 09:03:44;;;;;;;4.68;2.20;;;;;;;;;;4997774;28;20072;-54
2023/05/04 09:06:10;;;;;;;2.05;1.85;;;;;;;;;;4997504;28;20042;-54
2023/05/04 09:08:36;;;;;;;3.75;2.30;;;;;;;;;;4997324;28;20038;-54
2023/05/04 09:11:01;;;;;;;2.70;1.90;;;;;;;;;;4996392;28;20049;-54
2023/05/04 09:13:27;;;;;;;2.22;2.03;;;;;;;;;;4996170;28;20125;-54
2023/05/04 09:15:56;;;;;;;3.97;2.22;;;;;;;;;;4997140;28;20022;-55
2023/05/04 09:18:22;;;;;;;2.72;2.20;;;;;;;;;;4997377;28;20128;-54
2023/05/04 09:20:48;;;;;;;2.70;2.00;;;;;;;;;;4995351;28;20038;-60
2023/05/04 09:23:14;;;;;;;2.88;1.60;;;;;;;;;;4996759;28;20105;-60
2023/05/04 09:25:49;;;;;;;3.50;1.92;;;;;;;;;;4996846;28;20057;-54
2023/05/04 09:28:15;;;;;;;3.47;1.70;;;;;;;;;;4996953;28;20037;-60
2023/05/04 09:30:41;;;;;;;2.30;1.80;;;;;;;;;;4996762;28;20516;-60
2023/05/04 09:33:06;;;;;;;2.28;1.85;;;;;;;;;;4997238;28;20034;-60
2023/05/04 09:35:32;;;;;;;1.60;1.50;;;;;;;;;;4997081;28;20582;-60
2023/05/04 09:37:57;;;;;;;1.77;1.67;;;;;;;;;;4996949;28;20525;-60
2023/05/04 09:40:34;;;;;;;2.25;1.60;;;;;;;;;;4996839;28;20396;-61
2023/05/04 09:43:00;;;;;;;2.78;1.90;;;;;;;;;;4997210;28;20045;-61
2023/05/04 09:45:25;;;;;;;1.95;1.50;;;;;;;;;;4996992;28;20022;-60
2023/05/04 09:47:52;;;;;;;1.70;1.60;;;;;;;;;;4997250;28;20034;-60
2023/05/04 09:50:22;;;;;;;2.22;2.00;;;;;;;;;;4996996;28;20117;-61
2023/05/04 09:52:48;;;;;;;2.00;1.90;;;;;;;;;;4997010;28;20117;-61
2023/05/04 09:55:14;;;;;;;5.60;2.47;;;;;;;;;;4996677;28;20031;-60
2023/05/04 09:57:41;;;;;;;3.38;1.80;;;;;;;;;;4996795;28;20018;-60
2023/05/04 10:00:11;;;;;;;2.13;1.83;;;;;;;;;;4996749;28;20042;-60
2023/05/04 10:02:36;;;;;;;3.30;2.08;;;;;;;;;;4995769;28;20118;-60
2023/05/04 10:05:03;;;;;;;2.00;1.83;;;;;;;;;;4996390;28;20033;-60
2023/05/04 10:07:30;;;;;;;2.47;1.55;;;;;;;;;;4996399;28;20022;-60
2023/05/04 10:09:56;;;;;;;2.03;1.92;;;;;;;;;;4995853;28;20447;-60
2023/05/04 10:12:22;;;;;;;1.88;1.67;;;;;;;;;;4993908;28;20034;-61
2023/05/04 10:14:54;;;;;;;1.70;1.60;;;;;;;;;;4994990;28;20509;-61
2023/05/04 10:17:22;;;;;;;2.22;1.90;;;;;;;;;;4995584;28;20158;-60
2023/05/04 10:20:06;;;;;;;2.70;1.77;;;;;;;;;;4996331;28;20461;-60
2023/05/04 10:22:32;;;;;;;1.50;1.40;;;;;;;;;;4993953;28;20031;-60
2023/05/04 10:25:23;;;;;;;1.58;1.48;;;;;;;;;;4994087;28;20044;-60
2023/05/04 10:28:08;;;;;;;3.38;1.70;;;;;;;;;;4993559;28;20066;-60
2023/05/04 10:30:33;;;;;;;2.17;1.98;;;;;;;;;;4993294;28;20081;-60
2023/05/04 10:33:00;;;;;;;1.90;1.80;;;;;;;;;;4993534;28;20038;-60
2023/05/04 10:35:26;;;;;;;2.53;1.75;;;;;;;;;;4992391;28;20094;-60
2023/05/04 10:37:53;;;;;;;3.92;1.70;;;;;;;;;;4993449;28;20062;-61
2023/05/04 10:40:19;;;;;;;2.65;1.50;;;;;;;;;;4993446;28;20378;-60
2023/05/04 10:42:44;;;;;;;2.03;1.70;;;;;;;;;;4993678;28;20042;-60
2023/05/04 10:45:10;;;;;;;2.30;1.75;;;;;;;;;;4995499;28;20173;-60
2023/05/04 10:47:38;;;;;;;1.70;1.60;;;;;;;;;;4995438;28;20034;-60
2023/05/04 10:50:08;;;;;;;2.80;1.75;;;;;;;;;;4994949;28;20038;-60
2023/05/04 10:52:46;;;;;;;1.90;1.00;;;;;;;;;;4994657;28;20045;-61
2023/05/04 10:55:12;;;;;;;1.88;1.77;;;;;;;;;;4994086;28;20034;-61
2023/05/04 10:57:48;;;;;;;3.90;2.20;;;;;;;;;;4995582;28;20022;-61
2023/05/04 11:00:14;;;;;;;1.77;1.38;;;;;;;;;;4995323;28;20116;-61
2023/05/04 11:02:39;;;;;;;2.10;2.00;;;;;;;;;;4976324;28;20070;-61
2023/05/04 11:05:05;;;;;;;1.60;1.50;;;;;;;;;;4975332;28;20500;-61
2023/05/04 11:07:40;;;;;;;1.90;1.73;;;;;;;;;;4975354;28;20559;-61
2023/05/04 11:10:07;;;;;;;3.38;1.77;;;;;;;;;;4974171;28;20035;-60
2023/05/04 11:12:32;;;;;;;2.55;1.88;;;;;;;;;;4972725;28;20035;-60
2023/05/04 11:15:04;;;;;;;3.13;1.92;;;;;;;;;;4972531;28;20030;-60
2023/05/04 11:17:29;;;;;;;1.40;1.30;;;;;;;;;;4972887;28;20114;-61
2023/05/04 11:19:55;;;;;;;2.85;2.15;;;;;;;;;;5005036;28;20121;-60
2023/05/04 11:22:20;;;;;;;1.63;1.50;;;;;;;;;;4973846;28;20042;-60
2023/05/04 11:24:47;;;;;;;2.10;1.90;;;;;;;;;;4991749;28;20082;-61
2023/05/04 11:27:39;;;;;;;3.28;1.95;;;;;;;;;;4993854;28;20125;-61
2023/05/04 11:30:04;;;;;;;1.70;1.60;;;;;;;;;;4991735;28;20050;-61
2023/05/04 11:32:41;;;;;;;1.88;1.23;;;;;;;;;;4991790;28;20103;-61
2023/05/04 11:35:08;;;;;;;1.48;1.20;;;;;;;;;;4994578;28;20515;-60
2023/05/04 11:37:38;;;;;;;1.98;1.63;;;;;;;;;;4994286;28;20146;-55
2023/05/04 11:40:07;;;;;;;1.70;1.60;;;;;;;;;;4994719;28;20061;-54
2023/05/04 11:42:32;;;;;;;1.48;1.38;;;;;;;;;;4994273;28;20084;-54
2023/05/04 11:44:58;;;;;;;2.95;1.70;;;;;;;;;;4993819;28;20030;-54
2023/05/04 11:47:25;;;;;;;2.58;2.15;;;;;;;;;;4994218;28;20424;-54
2023/05/04 11:49:50;;;;;;;1.85;1.75;;;;;;;;;;4993807;28;20049;-54
2023/05/04 11:52:16;;;;;;;5.25;2.30;;;;;;;;;;4992966;28;20026;-54
2023/05/04 11:54:41;;;;;;;2.28;2.08;;;;;;;;;;4993302;28;20022;-55
2023/05/04 11:57:06;;;;;;;3.75;1.83;;;;;;;;;;4992941;28;20108;-54
2023/05/04 11:59:32;;;;;;;2.60;2.10;;;;;;;;;;4993221;28;20027;-54
2023/05/04 12:01:57;;;;;;;3.25;1.90;;;;;;;;;;4993316;28;20026;-54
2023/05/04 12:04:29;;;;;;;2.47;2.28;;;;;;;;;;4993747;28;20469;-54
2023/05/04 12:06:54;;;;;;;3.22;3.00;;;;;;;;;;4994411;28;20045;-54
2023/05/04 12:09:20;;;;;;;3.05;2.85;;;;;;;;;;4994364;28;20030;-54
2023/05/04 12:11:52;;;;;;;2.13;2.00;;;;;;;;;;4994531;28;20366;-54
2023/05/04 12:14:18;;;;;;;2.80;2.05;;;;;;;;;;4994236;28;20030;-56
2023/05/04 12:16:52;;;;;;;2.88;2.30;;;;;;;;;;4994611;28;20031;-54
2023/05/04 12:19:17;;;;;;;2.03;1.90;;;;;;;;;;4994259;28;20503;-54
2023/05/04 12:21:53;;;;;;;3.15;1.83;;;;;;;;;;4993575;28;20030;-54
2023/05/04 12:24:22;;;;;;;2.50;2.30;;;;;;;;;;4994225;28;20128;-54
2023/05/04 12:26:48;;;;;;;2.05;1.95;;;;;;;;;;4994578;28;20544;-54
2023/05/04 12:29:13;;;;;;;3.13;2.13;;;;;;;;;;4993934;28;20038;-54
2023/05/04 12:31:38;;;;;;;2.80;2.00;;;;;;;;;;4994245;28;20034;-54
2023/05/04 12:34:04;;;;;;;3.38;2.17;;;;;;;;;;4993666;28;20023;-60
2023/05/04 12:36:29;;;;;;;3.30;1.90;;;;;;;;;;4995904;28;20034;-60
2023/05/04 12:38:55;;;;;;;2.53;2.33;;;;;;;;;;4998168;28;20457;-61
2023/05/04 12:41:20;;;;;;;2.65;1.90;;;;;;;;;;4997652;28;20044;-61
2023/05/04 12:43:45;;;;;;;1.88;1.77;;;;;;;;;;4998042;28;20030;-61
2023/05/04 12:46:11;;;;;;;2.17;1.90;;;;;;;;;;4997880;28;20423;-61
2023/05/04 12:48:36;;;;;;;2.03;1.90;;;;;;;;;;4997736;28;20038;-55
2023/05/04 12:51:04;;;;;;;2.03;1.75;;;;;;;;;;4997730;28;20114;-55
2023/05/04 12:53:31;;;;;;;2.50;2.10;;;;;;;;;;4996805;28;20357;-60
2023/05/04 12:55:56;;;;;;;4.25;2.22;;;;;;;;;;4997349;28;20026;-61
2023/05/04 12:58:22;;;;;;;2.67;2.10;;;;;;;;;;4997741;28;20030;-61
2023/05/04 13:00:47;;;;;;;2.20;2.00;;;;;;;;;;4997210;28;20026;-61
2023/05/04 13:03:15;;;;;;;2.15;1.95;;;;;;;;;;4997229;28;20184;-61
2023/05/04 13:05:41;;;;;;;2.30;2.10;;;;;;;;;;4997163;28;20018;-64
2023/05/04 13:08:07;;;;;;;3.05;1.95;;;;;;;;;;4997160;28;20042;-61
2023/05/04 13:10:32;;;;;;;3.20;2.35;;;;;;;;;;4997620;28;20037;-61
2023/05/04 13:12:58;;;;;;;3.08;1.80;;;;;;;;;;4997479;28;20049;-61
2023/05/04 13:15:23;;;;;;;2.30;1.73;;;;;;;;;;4997299;28;20025;-61
2023/05/04 13:17:48;;;;;;;1.70;1.60;;;;;;;;;;4997591;28;20409;-61
2023/05/04 13:20:14;;;;;;;1.90;1.70;;;;;;;;;;4996462;28;20396;-61
2023/05/04 13:22:39;;;;;;;1.95;1.70;;;;;;;;;;4996941;28;20030;-61
2023/05/04 13:25:05;;;;;;;1.85;1.50;;;;;;;;;;4995865;28;20031;-61
2023/05/04 13:27:31;;;;;;;2.60;2.00;;;;;;;;;;4993363;28;20477;-61
2023/05/04 13:29:57;;;;;;;1.70;1.60;;;;;;;;;;4993408;28;20046;-61
2023/05/04 13:32:24;;;;;;;3.70;1.48;;;;;;;;;;4994573;28;20033;-61
2023/05/04 13:34:50;;;;;;;2.38;2.15;;;;;;;;;;4995219;28;20031;-61
2023/05/04 13:37:17;;;;;;;2.22;1.60;;;;;;;;;;4994177;28;20089;-61
2023/05/04 13:39:43;;;;;;;2.45;1.70;;;;;;;;;;4996782;28;20034;-61
2023/05/04 13:42:08;;;;;;;1.60;1.50;;;;;;;;;;4996931;28;20030;-61
2023/05/04 13:44:33;;;;;;;2.25;1.42;;;;;;;;;;4996900;28;20150;-56
2023/05/04 13:47:00;;;;;;;1.85;1.48;;;;;;;;;;4996593;28;20110;-55
2023/05/04 13:49:25;;;;;;;2.10;1.60;;;;;;;;;;4996557;28;20026;-55
2023/05/04 13:51:51;;;;;;;1.75;1.60;;;;;;;;;;4996951;28;20356;-55
2023/05/04 13:54:16;;;;;;;1.88;1.30;;;;;;;;;;4979574;28;20038;-55
2023/05/04 13:56:41;;;;;;;4.28;1.75;;;;;;;;;;4996853;28;20112;-55
2023/05/04 13:59:07;;;;;;;1.80;1.70;;;;;;;;;;4996842;28;20026;-55
2023/05/04 14:01:32;;;;;;;1.70;1.60;;;;;;;;;;4996660;28;20066;-55
2023/05/04 14:03:57;;;;;;;3.92;1.50;;;;;;;;;;4995793;28;20029;-55
2023/05/04 14:06:24;;;;;;;1.40;1.35;;;;;;;;;;4996403;28;20038;-55
2023/05/04 14:08:50;;;;;;;1.48;1.38;;;;;;;;;;4996669;28;20045;-55
2023/05/04 14:11:15;;;;;;;2.92;1.80;;;;;;;;;;4995460;28;20042;-55
2023/05/04 14:13:40;;;;;;;1.67;1.58;;;;;;;;;;4996154;28;20034;-55
2023/05/04 14:16:06;;;;;;;3.22;1.50;;;;;;;;;;4996255;28;20034;-55
2023/05/04 14:18:31;;;;;;;2.22;1.50;;;;;;;;;;4996476;28;20037;-55
2023/05/04 14:20:57;;;;;;;2.00;1.60;;;;;;;;;;4996156;28;20156;-55
2023/05/04 14:23:22;;;;;;;1.90;1.80;;;;;;;;;;4996045;28;20051;-55
2023/05/04 14:25:51;;;;;;;2.13;1.40;;;;;;;;;;4995986;28;20453;-55
2023/05/04 14:28:17;;;;;;;1.38;1.27;;;;;;;;;;4996539;28;20031;-55
2023/05/04 14:30:42;;;;;;;1.30;1.20;;;;;;;;;;4996377;28;20038;-55
2023/05/04 14:33:07;;;;;;;2.75;2.55;;;;;;;;;;4995964;28;20488;-55
2023/05/04 14:35:36;;;;;;;2.13;1.60;;;;;;;;;;4995830;28;20026;-55
2023/05/04 14:38:01;;;;;;;1.20;1.10;;;;;;;;;;4996136;28;20022;-55